sensor_id;sensor_type;location;lat;lon;timestamp;P1;durP1;ratioP1;P2;durP2;ratioP2
11685;SDS011;5899;51.282;6.094;2023-02-28T00:00:22;5.78;;;4.90;;
11685;SDS011;5899;51.282;6.094;2023-02-28T00:02:53;7.03;;;5.25;;
11685;SDS011;5899;51.282;6.094;2023-02-28T00:05:20;5.65;;;5.05;;
11685;SDS011;5899;51.282;6.094;2023-02-28T00:07:47;6.05;;;5.07;;
11685;SDS011;5899;51.282;6.094;2023-02-28T00:10:15;5.95;;;4.80;;
11685;SDS011;5899;51.282;6.094;2023-02-28T00:12:44;5.40;;;4.90;;
11685;SDS011;5899;51.282;6.094;2023-02-28T00:15:11;4.70;;;4.30;;
11685;SDS011;5899;51.282;6.094;2023-02-28T00:17:37;5.33;;;4.70;;
11685;SDS011;5899;51.282;6.094;2023-02-28T00:20:06;12.75;;;5.82;;
11685;SDS011;5899;51.282;6.094;2023-02-28T00:22:35;8.43;;;5.07;;
11685;SDS011;5899;51.282;6.094;2023-02-28T00:25:02;6.18;;;5.05;;
11685;SDS011;5899;51.282;6.094;2023-02-28T00:27:29;5.97;;;4.35;;
11685;SDS011;5899;51.282;6.094;2023-02-28T00:29:56;5.40;;;4.30;;
11685;SDS011;5899;51.282;6.094;2023-02-28T00:32:22;4.70;;;4.20;;
11685;SDS011;5899;51.282;6.094;2023-02-28T00:34:50;5.40;;;4.30;;
11685;SDS011;5899;51.282;6.094;2023-02-28T00:37:18;5.10;;;4.07;;
11685;SDS011;5899;51.282;6.094;2023-02-28T00:39:45;5.63;;;4.37;;
11685;SDS011;5899;51.282;6.094;2023-02-28T00:42:11;5.25;;;4.60;;
11685;SDS011;5899;51.282;6.094;2023-02-28T00:44:38;5.00;;;4.45;;
11685;SDS011;5899;51.282;6.094;2023-02-28T00:47:06;5.50;;;4.50;;
11685;SDS011;5899;51.282;6.094;2023-02-28T00:49:32;4.88;;;4.00;;
11685;SDS011;5899;51.282;6.094;2023-02-28T00:51:59;4.72;;;4.18;;
11685;SDS011;5899;51.282;6.094;2023-02-28T00:54:27;6.45;;;4.32;;
11685;SDS011;5899;51.282;6.094;2023-02-28T00:56:53;5.75;;;4.68;;
11685;SDS011;5899;51.282;6.094;2023-02-28T00:59:20;4.85;;;4.32;;
11685;SDS011;5899;51.282;6.094;2023-02-28T01:01:46;4.75;;;4.13;;
11685;SDS011;5899;51.282;6.094;2023-02-28T01:04:13;6.72;;;4.60;;
11685;SDS011;5899;51.282;6.094;2023-02-28T01:06:40;5.15;;;4.47;;
11685;SDS011;5899;51.282;6.094;2023-02-28T01:09:07;5.28;;;4.35;;
11685;SDS011;5899;51.282;6.094;2023-02-28T01:11:35;4.77;;;4.33;;
11685;SDS011;5899;51.282;6.094;2023-02-28T01:14:02;4.15;;;3.53;;
11685;SDS011;5899;51.282;6.094;2023-02-28T01:16:29;4.47;;;4.07;;
11685;SDS011;5899;51.282;6.094;2023-02-28T01:18:55;6.28;;;4.10;;
11685;SDS011;5899;51.282;6.094;2023-02-28T01:21:23;4.70;;;4.20;;
11685;SDS011;5899;51.282;6.094;2023-02-28T01:23:49;5.68;;;4.35;;
11685;SDS011;5899;51.282;6.094;2023-02-28T01:26:16;4.60;;;4.10;;
11685;SDS011;5899;51.282;6.094;2023-02-28T01:28:44;5.80;;;4.15;;
11685;SDS011;5899;51.282;6.094;2023-02-28T01:31:11;4.47;;;4.07;;
11685;SDS011;5899;51.282;6.094;2023-02-28T01:33:40;4.00;;;3.70;;
11685;SDS011;5899;51.282;6.094;2023-02-28T01:36:09;5.40;;;4.20;;
11685;SDS011;5899;51.282;6.094;2023-02-28T01:38:41;4.45;;;4.05;;
11685;SDS011;5899;51.282;6.094;2023-02-28T01:41:08;4.50;;;4.00;;
11685;SDS011;5899;51.282;6.094;2023-02-28T01:46:33;5.53;;;4.30;;
11685;SDS011;5899;51.282;6.094;2023-02-28T01:49:06;4.93;;;3.70;;
11685;SDS011;5899;51.282;6.094;2023-02-28T01:51:37;4.65;;;4.20;;
11685;SDS011;5899;51.282;6.094;2023-02-28T01:54:05;4.57;;;3.97;;
11685;SDS011;5899;51.282;6.094;2023-02-28T01:56:42;4.47;;;4.03;;
11685;SDS011;5899;51.282;6.094;2023-02-28T01:59:10;5.13;;;4.22;;
11685;SDS011;5899;51.282;6.094;2023-02-28T02:01:44;7.13;;;3.95;;
11685;SDS011;5899;51.282;6.094;2023-02-28T02:04:13;4.40;;;3.95;;
11685;SDS011;5899;51.282;6.094;2023-02-28T02:06:45;4.38;;;3.97;;
11685;SDS011;5899;51.282;6.094;2023-02-28T02:09:46;5.32;;;4.20;;
11685;SDS011;5899;51.282;6.094;2023-02-28T02:12:23;5.43;;;4.50;;
11685;SDS011;5899;51.282;6.094;2023-02-28T02:15:00;5.57;;;4.22;;
11685;SDS011;5899;51.282;6.094;2023-02-28T02:17:34;4.20;;;3.80;;
11685;SDS011;5899;51.282;6.094;2023-02-28T02:25:34;5.53;;;4.30;;
11685;SDS011;5899;51.282;6.094;2023-02-28T02:31:09;6.77;;;4.50;;
11685;SDS011;5899;51.282;6.094;2023-02-28T02:36:45;5.15;;;4.03;;
11685;SDS011;5899;51.282;6.094;2023-02-28T02:39:31;4.87;;;4.43;;
11685;SDS011;5899;51.282;6.094;2023-02-28T02:44:58;4.75;;;4.22;;
11685;SDS011;5899;51.282;6.094;2023-02-28T02:48:03;6.97;;;4.65;;
11685;SDS011;5899;51.282;6.094;2023-02-28T02:50:29;5.43;;;4.90;;
11685;SDS011;5899;51.282;6.094;2023-02-28T02:55:47;4.72;;;4.03;;
11685;SDS011;5899;51.282;6.094;2023-02-28T02:58:18;5.03;;;4.57;;
11685;SDS011;5899;51.282;6.094;2023-02-28T03:00:51;4.93;;;3.95;;
11685;SDS011;5899;51.282;6.094;2023-02-28T03:03:28;6.13;;;4.35;;
11685;SDS011;5899;51.282;6.094;2023-02-28T03:06:07;5.07;;;4.57;;
11685;SDS011;5899;51.282;6.094;2023-02-28T03:08:36;6.53;;;4.18;;
11685;SDS011;5899;51.282;6.094;2023-02-28T03:11:04;8.27;;;4.43;;
11685;SDS011;5899;51.282;6.094;2023-02-28T03:13:49;10.25;;;4.18;;
11685;SDS011;5899;51.282;6.094;2023-02-28T03:19:23;5.28;;;4.22;;
11685;SDS011;5899;51.282;6.094;2023-02-28T03:22:00;4.68;;;4.10;;
11685;SDS011;5899;51.282;6.094;2023-02-28T03:24:54;6.65;;;4.95;;
11685;SDS011;5899;51.282;6.094;2023-02-28T03:35:36;5.28;;;4.35;;
11685;SDS011;5899;51.282;6.094;2023-02-28T03:38:06;5.28;;;4.18;;
11685;SDS011;5899;51.282;6.094;2023-02-28T03:40:45;5.47;;;4.63;;
11685;SDS011;5899;51.282;6.094;2023-02-28T03:43:20;4.95;;;4.32;;
11685;SDS011;5899;51.282;6.094;2023-02-28T03:45:51;6.32;;;4.25;;
11685;SDS011;5899;51.282;6.094;2023-02-28T03:48:24;5.70;;;4.73;;
11685;SDS011;5899;51.282;6.094;2023-02-28T03:50:56;6.05;;;4.40;;
11685;SDS011;5899;51.282;6.094;2023-02-28T03:53:27;4.65;;;4.15;;
11685;SDS011;5899;51.282;6.094;2023-02-28T03:55:56;4.38;;;3.97;;
11685;SDS011;5899;51.282;6.094;2023-02-28T03:58:27;5.40;;;4.28;;
11685;SDS011;5899;51.282;6.094;2023-02-28T04:00:59;6.30;;;4.53;;
11685;SDS011;5899;51.282;6.094;2023-02-28T04:03:39;6.05;;;4.35;;
11685;SDS011;5899;51.282;6.094;2023-02-28T04:06:14;4.95;;;4.45;;
11685;SDS011;5899;51.282;6.094;2023-02-28T04:08:45;5.33;;;4.20;;
11685;SDS011;5899;51.282;6.094;2023-02-28T04:11:16;5.03;;;4.53;;
11685;SDS011;5899;51.282;6.094;2023-02-28T04:14:04;5.43;;;4.15;;
11685;SDS011;5899;51.282;6.094;2023-02-28T04:16:36;5.38;;;4.30;;
11685;SDS011;5899;51.282;6.094;2023-02-28T04:19:23;6.40;;;4.10;;
11685;SDS011;5899;51.282;6.094;2023-02-28T04:24:55;6.63;;;4.88;;
11685;SDS011;5899;51.282;6.094;2023-02-28T04:27:29;7.20;;;5.13;;
11685;SDS011;5899;51.282;6.094;2023-02-28T04:29:55;5.63;;;4.40;;
11685;SDS011;5899;51.282;6.094;2023-02-28T04:32:24;6.82;;;4.78;;
11685;SDS011;5899;51.282;6.094;2023-02-28T04:34:52;6.65;;;4.40;;
11685;SDS011;5899;51.282;6.094;2023-02-28T04:37:22;5.25;;;4.28;;
11685;SDS011;5899;51.282;6.094;2023-02-28T04:39:55;4.43;;;4.00;;
11685;SDS011;5899;51.282;6.094;2023-02-28T04:45:08;5.13;;;4.40;;
11685;SDS011;5899;51.282;6.094;2023-02-28T04:47:40;5.18;;;4.55;;
11685;SDS011;5899;51.282;6.094;2023-02-28T04:50:07;4.65;;;4.13;;
11685;SDS011;5899;51.282;6.094;2023-02-28T04:52:38;5.82;;;3.97;;
11685;SDS011;5899;51.282;6.094;2023-02-28T04:55:20;6.20;;;4.55;;
11685;SDS011;5899;51.282;6.094;2023-02-28T04:57:51;6.28;;;4.50;;
11685;SDS011;5899;51.282;6.094;2023-02-28T05:00:19;5.18;;;4.50;;
11685;SDS011;5899;51.282;6.094;2023-02-28T05:02:49;4.97;;;4.07;;
11685;SDS011;5899;51.282;6.094;2023-02-28T05:05:17;7.38;;;4.40;;
11685;SDS011;5899;51.282;6.094;2023-02-28T05:07:49;4.90;;;4.40;;
11685;SDS011;5899;51.282;6.094;2023-02-28T05:15:42;6.45;;;4.88;;
11685;SDS011;5899;51.282;6.094;2023-02-28T05:18:13;4.63;;;4.20;;
11685;SDS011;5899;51.282;6.094;2023-02-28T05:20:42;6.50;;;4.50;;
11685;SDS011;5899;51.282;6.094;2023-02-28T05:23:16;5.07;;;4.40;;
11685;SDS011;5899;51.282;6.094;2023-02-28T05:25:45;5.63;;;4.82;;
11685;SDS011;5899;51.282;6.094;2023-02-28T05:28:17;16.23;;;5.55;;
11685;SDS011;5899;51.282;6.094;2023-02-28T05:30:47;12.07;;;5.88;;
11685;SDS011;5899;51.282;6.094;2023-02-28T05:33:15;7.43;;;5.07;;
11685;SDS011;5899;51.282;6.094;2023-02-28T05:35:41;4.43;;;4.00;;
11685;SDS011;5899;51.282;6.094;2023-02-28T05:38:11;5.18;;;4.53;;
11685;SDS011;5899;51.282;6.094;2023-02-28T05:40:43;4.88;;;3.85;;
11685;SDS011;5899;51.282;6.094;2023-02-28T05:43:17;5.00;;;4.55;;
11685;SDS011;5899;51.282;6.094;2023-02-28T05:45:47;5.60;;;4.70;;
11685;SDS011;5899;51.282;6.094;2023-02-28T05:48:17;6.45;;;4.40;;
11685;SDS011;5899;51.282;6.094;2023-02-28T05:50:49;7.13;;;4.83;;
11685;SDS011;5899;51.282;6.094;2023-02-28T05:53:17;6.32;;;4.82;;
11685;SDS011;5899;51.282;6.094;2023-02-28T05:55:48;5.75;;;4.80;;
11685;SDS011;5899;51.282;6.094;2023-02-28T05:58:17;5.75;;;4.82;;
11685;SDS011;5899;51.282;6.094;2023-02-28T06:00:44;9.27;;;5.32;;
11685;SDS011;5899;51.282;6.094;2023-02-28T06:03:15;6.38;;;5.10;;
11685;SDS011;5899;51.282;6.094;2023-02-28T06:05:56;5.72;;;5.10;;
11685;SDS011;5899;51.282;6.094;2023-02-28T06:08:22;7.50;;;5.38;;
11685;SDS011;5899;51.282;6.094;2023-02-28T06:10:54;8.38;;;5.20;;
11685;SDS011;5899;51.282;6.094;2023-02-28T06:13:23;7.85;;;5.60;;
11685;SDS011;5899;51.282;6.094;2023-02-28T06:15:54;7.18;;;5.43;;
11685;SDS011;5899;51.282;6.094;2023-02-28T06:18:27;7.32;;;5.45;;
11685;SDS011;5899;51.282;6.094;2023-02-28T06:20:56;6.88;;;5.47;;
11685;SDS011;5899;51.282;6.094;2023-02-28T06:23:53;8.13;;;5.33;;
11685;SDS011;5899;51.282;6.094;2023-02-28T06:26:34;8.00;;;5.35;;
11685;SDS011;5899;51.282;6.094;2023-02-28T06:29:03;6.85;;;5.72;;
11685;SDS011;5899;51.282;6.094;2023-02-28T06:31:32;8.35;;;5.90;;
11685;SDS011;5899;51.282;6.094;2023-02-28T06:34:01;6.35;;;5.28;;
11685;SDS011;5899;51.282;6.094;2023-02-28T06:36:28;6.25;;;5.30;;
11685;SDS011;5899;51.282;6.094;2023-02-28T06:39:02;6.72;;;5.65;;
11685;SDS011;5899;51.282;6.094;2023-02-28T06:41:30;7.07;;;4.75;;
11685;SDS011;5899;51.282;6.094;2023-02-28T06:44:05;7.63;;;5.30;;
11685;SDS011;5899;51.282;6.094;2023-02-28T06:46:34;5.68;;;4.97;;
11685;SDS011;5899;51.282;6.094;2023-02-28T06:49:02;5.82;;;5.28;;
11685;SDS011;5899;51.282;6.094;2023-02-28T06:51:31;6.78;;;5.18;;
11685;SDS011;5899;51.282;6.094;2023-02-28T06:54:00;8.15;;;5.03;;
11685;SDS011;5899;51.282;6.094;2023-02-28T06:56:28;6.38;;;5.13;;
11685;SDS011;5899;51.282;6.094;2023-02-28T06:59:02;6.40;;;4.90;;
11685;SDS011;5899;51.282;6.094;2023-02-28T07:01:29;6.07;;;5.20;;
11685;SDS011;5899;51.282;6.094;2023-02-28T07:04:07;6.47;;;5.57;;
11685;SDS011;5899;51.282;6.094;2023-02-28T07:06:35;7.97;;;5.63;;
11685;SDS011;5899;51.282;6.094;2023-02-28T07:09:02;7.82;;;5.55;;
11685;SDS011;5899;51.282;6.094;2023-02-28T07:11:35;8.07;;;6.27;;
11685;SDS011;5899;51.282;6.094;2023-02-28T07:14:02;7.50;;;5.78;;
11685;SDS011;5899;51.282;6.094;2023-02-28T07:16:33;6.93;;;5.93;;
11685;SDS011;5899;51.282;6.094;2023-02-28T07:19:15;6.30;;;5.70;;
11685;SDS011;5899;51.282;6.094;2023-02-28T07:21:51;7.75;;;5.60;;
11685;SDS011;5899;51.282;6.094;2023-02-28T07:24:26;7.60;;;4.90;;
11685;SDS011;5899;51.282;6.094;2023-02-28T07:26:54;8.07;;;4.75;;
11685;SDS011;5899;51.282;6.094;2023-02-28T07:29:22;5.03;;;4.50;;
11685;SDS011;5899;51.282;6.094;2023-02-28T07:31:50;4.95;;;4.45;;
11685;SDS011;5899;51.282;6.094;2023-02-28T07:34:22;4.90;;;4.40;;
11685;SDS011;5899;51.282;6.094;2023-02-28T07:36:51;6.00;;;4.37;;
11685;SDS011;5899;51.282;6.094;2023-02-28T07:39:20;4.68;;;4.13;;
11685;SDS011;5899;51.282;6.094;2023-02-28T07:41:50;5.88;;;4.35;;
11685;SDS011;5899;51.282;6.094;2023-02-28T07:44:16;6.38;;;4.70;;
11685;SDS011;5899;51.282;6.094;2023-02-28T07:46:44;6.10;;;4.00;;
11685;SDS011;5899;51.282;6.094;2023-02-28T07:49:20;4.10;;;3.67;;
11685;SDS011;5899;51.282;6.094;2023-02-28T07:51:48;5.63;;;3.80;;
11685;SDS011;5899;51.282;6.094;2023-02-28T07:54:15;5.22;;;3.88;;
11685;SDS011;5899;51.282;6.094;2023-02-28T07:56:41;5.73;;;3.63;;
11685;SDS011;5899;51.282;6.094;2023-02-28T07:59:08;6.75;;;3.92;;
11685;SDS011;5899;51.282;6.094;2023-02-28T08:01:35;5.78;;;4.07;;
11685;SDS011;5899;51.282;6.094;2023-02-28T08:04:05;6.25;;;3.75;;
11685;SDS011;5899;51.282;6.094;2023-02-28T08:06:38;5.00;;;3.85;;
11685;SDS011;5899;51.282;6.094;2023-02-28T08:09:06;3.80;;;3.40;;
11685;SDS011;5899;51.282;6.094;2023-02-28T08:11:36;4.22;;;3.10;;
11685;SDS011;5899;51.282;6.094;2023-02-28T08:14:04;5.03;;;3.70;;
11685;SDS011;5899;51.282;6.094;2023-02-28T08:16:35;4.03;;;3.63;;
11685;SDS011;5899;51.282;6.094;2023-02-28T08:19:02;3.92;;;3.28;;
11685;SDS011;5899;51.282;6.094;2023-02-28T08:21:30;4.28;;;3.38;;
11685;SDS011;5899;51.282;6.094;2023-02-28T08:23:58;4.00;;;3.35;;
11685;SDS011;5899;51.282;6.094;2023-02-28T08:26:28;6.53;;;3.50;;
11685;SDS011;5899;51.282;6.094;2023-02-28T08:29:00;3.75;;;3.35;;
11685;SDS011;5899;51.282;6.094;2023-02-28T08:31:27;4.40;;;3.22;;
11685;SDS011;5899;51.282;6.094;2023-02-28T08:33:55;4.10;;;3.40;;
11685;SDS011;5899;51.282;6.094;2023-02-28T08:36:26;4.82;;;3.38;;
11685;SDS011;5899;51.282;6.094;2023-02-28T08:38:53;3.83;;;3.10;;
11685;SDS011;5899;51.282;6.094;2023-02-28T08:41:20;3.40;;;3.00;;
11685;SDS011;5899;51.282;6.094;2023-02-28T08:43:48;3.80;;;2.95;;
11685;SDS011;5899;51.282;6.094;2023-02-28T08:46:14;5.03;;;3.00;;
11685;SDS011;5899;51.282;6.094;2023-02-28T08:48:41;4.22;;;2.88;;
11685;SDS011;5899;51.282;6.094;2023-02-28T08:51:09;3.67;;;3.10;;
11685;SDS011;5899;51.282;6.094;2023-02-28T08:53:38;3.95;;;2.90;;
11685;SDS011;5899;51.282;6.094;2023-02-28T08:56:10;3.50;;;2.47;;
11685;SDS011;5899;51.282;6.094;2023-02-28T08:58:37;3.60;;;3.00;;
11685;SDS011;5899;51.282;6.094;2023-02-28T09:01:12;3.00;;;2.60;;
11685;SDS011;5899;51.282;6.094;2023-02-28T09:03:40;4.13;;;2.72;;
11685;SDS011;5899;51.282;6.094;2023-02-28T09:06:11;3.05;;;2.72;;
11685;SDS011;5899;51.282;6.094;2023-02-28T09:08:38;3.72;;;2.63;;
11685;SDS011;5899;51.282;6.094;2023-02-28T09:11:11;3.08;;;2.78;;
11685;SDS011;5899;51.282;6.094;2023-02-28T09:13:40;3.15;;;2.70;;
11685;SDS011;5899;51.282;6.094;2023-02-28T09:16:10;2.80;;;2.60;;
11685;SDS011;5899;51.282;6.094;2023-02-28T09:18:40;3.60;;;2.45;;
11685;SDS011;5899;51.282;6.094;2023-02-28T09:21:07;2.63;;;2.42;;
11685;SDS011;5899;51.282;6.094;2023-02-28T09:23:40;3.67;;;2.40;;
11685;SDS011;5899;51.282;6.094;2023-02-28T09:26:13;2.30;;;2.10;;
11685;SDS011;5899;51.282;6.094;2023-02-28T09:28:44;2.60;;;2.40;;
11685;SDS011;5899;51.282;6.094;2023-02-28T09:31:19;2.78;;;2.40;;
11685;SDS011;5899;51.282;6.094;2023-02-28T09:33:50;2.80;;;2.50;;
11685;SDS011;5899;51.282;6.094;2023-02-28T09:36:21;2.53;;;2.22;;
11685;SDS011;5899;51.282;6.094;2023-02-28T09:38:50;2.47;;;2.25;;
11685;SDS011;5899;51.282;6.094;2023-02-28T09:41:25;2.70;;;2.50;;
11685;SDS011;5899;51.282;6.094;2023-02-28T09:43:53;3.20;;;2.42;;
11685;SDS011;5899;51.282;6.094;2023-02-28T09:46:29;3.63;;;2.75;;
11685;SDS011;5899;51.282;6.094;2023-02-28T09:49:05;2.40;;;2.20;;
11685;SDS011;5899;51.282;6.094;2023-02-28T09:51:40;2.90;;;2.60;;
11685;SDS011;5899;51.282;6.094;2023-02-28T09:54:16;3.13;;;2.83;;
11685;SDS011;5899;51.282;6.094;2023-02-28T09:56:44;2.35;;;2.15;;
11685;SDS011;5899;51.282;6.094;2023-02-28T09:59:17;2.65;;;2.20;;
11685;SDS011;5899;51.282;6.094;2023-02-28T10:01:50;2.25;;;2.05;;
11685;SDS011;5899;51.282;6.094;2023-02-28T10:04:26;2.28;;;2.08;;
11685;SDS011;5899;51.282;6.094;2023-02-28T10:07:06;2.15;;;1.95;;
11685;SDS011;5899;51.282;6.094;2023-02-28T10:09:44;1.73;;;1.60;;
11685;SDS011;5899;51.282;6.094;2023-02-28T10:12:17;2.13;;;1.92;;
11685;SDS011;5899;51.282;6.094;2023-02-28T10:14:47;2.87;;;1.90;;
11685;SDS011;5899;51.282;6.094;2023-02-28T10:17:22;2.30;;;2.10;;
11685;SDS011;5899;51.282;6.094;2023-02-28T10:19:58;1.90;;;1.70;;
11685;SDS011;5899;51.282;6.094;2023-02-28T10:22:34;2.05;;;1.85;;
11685;SDS011;5899;51.282;6.094;2023-02-28T10:25:05;1.97;;;1.80;;
11685;SDS011;5899;51.282;6.094;2023-02-28T10:27:47;2.20;;;2.00;;
11685;SDS011;5899;51.282;6.094;2023-02-28T10:30:18;1.90;;;1.70;;
11685;SDS011;5899;51.282;6.094;2023-02-28T10:32:49;2.00;;;1.70;;
11685;SDS011;5899;51.282;6.094;2023-02-28T10:35:19;2.63;;;1.87;;
11685;SDS011;5899;51.282;6.094;2023-02-28T10:37:55;2.42;;;1.92;;
11685;SDS011;5899;51.282;6.094;2023-02-28T10:40:29;2.70;;;2.00;;
11685;SDS011;5899;51.282;6.094;2023-02-28T10:42:57;1.80;;;1.70;;
11685;SDS011;5899;51.282;6.094;2023-02-28T10:48:29;3.28;;;2.20;;
11685;SDS011;5899;51.282;6.094;2023-02-28T10:51:00;2.10;;;1.90;;
11685;SDS011;5899;51.282;6.094;2023-02-28T10:53:30;3.38;;;3.05;;
11685;SDS011;5899;51.282;6.094;2023-02-28T10:56:01;1.90;;;1.80;;
11685;SDS011;5899;51.282;6.094;2023-02-28T10:58:46;2.53;;;2.10;;
11685;SDS011;5899;51.282;6.094;2023-02-28T11:01:16;2.35;;;2.00;;
11685;SDS011;5899;51.282;6.094;2023-02-28T11:04:11;2.28;;;2.00;;
11685;SDS011;5899;51.282;6.094;2023-02-28T11:06:44;2.30;;;1.95;;
11685;SDS011;5899;51.282;6.094;2023-02-28T11:09:15;3.05;;;2.03;;
11685;SDS011;5899;51.282;6.094;2023-02-28T11:11:45;2.30;;;2.08;;
11685;SDS011;5899;51.282;6.094;2023-02-28T11:14:21;2.20;;;2.00;;
11685;SDS011;5899;51.282;6.094;2023-02-28T11:16:53;2.53;;;2.03;;
11685;SDS011;5899;51.282;6.094;2023-02-28T11:19:33;3.00;;;2.00;;
11685;SDS011;5899;51.282;6.094;2023-02-28T11:22:02;2.28;;;2.00;;
11685;SDS011;5899;51.282;6.094;2023-02-28T11:24:42;2.53;;;2.33;;
11685;SDS011;5899;51.282;6.094;2023-02-28T11:27:20;3.25;;;2.60;;
11685;SDS011;5899;51.282;6.094;2023-02-28T11:29:55;2.80;;;2.22;;
11685;SDS011;5899;51.282;6.094;2023-02-28T11:32:30;2.40;;;1.75;;
11685;SDS011;5899;51.282;6.094;2023-02-28T11:37:44;2.50;;;1.90;;
11685;SDS011;5899;51.282;6.094;2023-02-28T11:40:17;3.00;;;2.40;;
11685;SDS011;5899;51.282;6.094;2023-02-28T11:42:46;2.50;;;2.10;;
11685;SDS011;5899;51.282;6.094;2023-02-28T11:45:27;2.30;;;2.10;;
11685;SDS011;5899;51.282;6.094;2023-02-28T11:48:01;2.42;;;1.98;;
11685;SDS011;5899;51.282;6.094;2023-02-28T11:50:40;2.65;;;2.00;;
11685;SDS011;5899;51.282;6.094;2023-02-28T11:53:28;2.00;;;1.80;;
11685;SDS011;5899;51.282;6.094;2023-02-28T11:56:06;2.22;;;1.95;;
11685;SDS011;5899;51.282;6.094;2023-02-28T12:01:35;2.20;;;2.00;;
11685;SDS011;5899;51.282;6.094;2023-02-28T12:04:16;2.58;;;2.10;;
11685;SDS011;5899;51.282;6.094;2023-02-28T12:06:49;2.40;;;2.20;;
11685;SDS011;5899;51.282;6.094;2023-02-28T12:09:46;2.95;;;2.03;;
11685;SDS011;5899;51.282;6.094;2023-02-28T12:12:21;3.60;;;2.40;;
11685;SDS011;5899;51.282;6.094;2023-02-28T12:14:55;2.47;;;2.28;;
11685;SDS011;5899;51.282;6.094;2023-02-28T12:17:41;4.90;;;2.20;;
11685;SDS011;5899;51.282;6.094;2023-02-28T12:20:33;2.30;;;2.10;;
11685;SDS011;5899;51.282;6.094;2023-02-28T12:23:08;3.38;;;2.15;;
11685;SDS011;5899;51.282;6.094;2023-02-28T12:26:10;2.50;;;2.00;;
11685;SDS011;5899;51.282;6.094;2023-02-28T12:28:53;3.15;;;2.20;;
11685;SDS011;5899;51.282;6.094;2023-02-28T12:31:24;2.45;;;2.10;;
11685;SDS011;5899;51.282;6.094;2023-02-28T12:33:59;2.50;;;2.30;;
11685;SDS011;5899;51.282;6.094;2023-02-28T12:36:31;3.08;;;2.38;;
11685;SDS011;5899;51.282;6.094;2023-02-28T12:39:05;2.50;;;2.20;;
11685;SDS011;5899;51.282;6.094;2023-02-28T12:41:44;2.73;;;2.30;;
11685;SDS011;5899;51.282;6.094;2023-02-28T12:44:19;2.50;;;2.30;;
11685;SDS011;5899;51.282;6.094;2023-02-28T12:46:54;4.18;;;2.22;;
11685;SDS011;5899;51.282;6.094;2023-02-28T12:49:38;2.30;;;1.90;;
11685;SDS011;5899;51.282;6.094;2023-02-28T12:52:25;2.90;;;2.10;;
11685;SDS011;5899;51.282;6.094;2023-02-28T12:56:30;2.35;;;2.15;;
11685;SDS011;5899;51.282;6.094;2023-02-28T13:01:04;3.70;;;2.30;;
11685;SDS011;5899;51.282;6.094;2023-02-28T13:03:47;2.60;;;2.30;;
11685;SDS011;5899;51.282;6.094;2023-02-28T13:06:38;2.65;;;2.13;;
11685;SDS011;5899;51.282;6.094;2023-02-28T13:12:25;3.25;;;2.35;;
11685;SDS011;5899;51.282;6.094;2023-02-28T13:21:24;2.15;;;2.00;;
11685;SDS011;5899;51.282;6.094;2023-02-28T13:24:03;3.20;;;2.08;;
11685;SDS011;5899;51.282;6.094;2023-02-28T13:29:40;2.70;;;2.50;;
11685;SDS011;5899;51.282;6.094;2023-02-28T13:32:27;2.72;;;2.53;;
11685;SDS011;5899;51.282;6.094;2023-02-28T13:52:31;3.10;;;2.38;;
11685;SDS011;5899;51.282;6.094;2023-02-28T13:55:41;3.08;;;2.40;;
11685;SDS011;5899;51.282;6.094;2023-02-28T13:58:09;3.30;;;2.60;;
11685;SDS011;5899;51.282;6.094;2023-02-28T14:03:50;2.55;;;2.30;;
11685;SDS011;5899;51.282;6.094;2023-02-28T14:06:29;2.60;;;2.40;;
11685;SDS011;5899;51.282;6.094;2023-02-28T14:09:03;3.80;;;2.50;;
11685;SDS011;5899;51.282;6.094;2023-02-28T14:11:35;3.20;;;2.90;;
11685;SDS011;5899;51.282;6.094;2023-02-28T14:14:08;2.70;;;2.50;;
11685;SDS011;5899;51.282;6.094;2023-02-28T14:16:43;2.42;;;2.15;;
11685;SDS011;5899;51.282;6.094;2023-02-28T14:19:24;2.53;;;2.33;;
11685;SDS011;5899;51.282;6.094;2023-02-28T14:22:00;2.50;;;2.30;;
11685;SDS011;5899;51.282;6.094;2023-02-28T14:24:33;2.75;;;2.45;;
11685;SDS011;5899;51.282;6.094;2023-02-28T14:27:26;2.50;;;2.30;;
11685;SDS011;5899;51.282;6.094;2023-02-28T14:30:00;2.97;;;2.63;;
11685;SDS011;5899;51.282;6.094;2023-02-28T14:32:37;2.92;;;2.65;;
11685;SDS011;5899;51.282;6.094;2023-02-28T14:35:16;2.97;;;2.40;;
11685;SDS011;5899;51.282;6.094;2023-02-28T14:37:52;3.22;;;2.53;;
11685;SDS011;5899;51.282;6.094;2023-02-28T14:40:27;5.65;;;2.88;;
11685;SDS011;5899;51.282;6.094;2023-02-28T14:43:24;2.60;;;2.40;;
11685;SDS011;5899;51.282;6.094;2023-02-28T14:45:55;2.60;;;2.40;;
11685;SDS011;5899;51.282;6.094;2023-02-28T14:48:28;2.92;;;2.50;;
11685;SDS011;5899;51.282;6.094;2023-02-28T14:51:17;3.28;;;2.35;;
11685;SDS011;5899;51.282;6.094;2023-02-28T14:53:55;2.83;;;2.10;;
11685;SDS011;5899;51.282;6.094;2023-02-28T14:56:25;2.55;;;2.35;;
11685;SDS011;5899;51.282;6.094;2023-02-28T14:58:53;2.85;;;2.50;;
11685;SDS011;5899;51.282;6.094;2023-02-28T15:01:27;3.28;;;2.35;;
11685;SDS011;5899;51.282;6.094;2023-02-28T15:04:04;3.00;;;2.50;;
11685;SDS011;5899;51.282;6.094;2023-02-28T15:09:53;3.07;;;2.50;;
11685;SDS011;5899;51.282;6.094;2023-02-28T15:12:46;3.77;;;2.40;;
11685;SDS011;5899;51.282;6.094;2023-02-28T15:15:33;3.00;;;2.70;;
11685;SDS011;5899;51.282;6.094;2023-02-28T15:18:05;4.78;;;2.72;;
11685;SDS011;5899;51.282;6.094;2023-02-28T15:24:02;3.10;;;2.80;;
11685;SDS011;5899;51.282;6.094;2023-02-28T15:26:54;2.65;;;2.42;;
11685;SDS011;5899;51.282;6.094;2023-02-28T15:29:46;2.80;;;2.60;;
11685;SDS011;5899;51.282;6.094;2023-02-28T15:33:05;4.45;;;2.70;;
11685;SDS011;5899;51.282;6.094;2023-02-28T15:37:37;3.20;;;2.80;;
11685;SDS011;5899;51.282;6.094;2023-02-28T15:44:39;3.07;;;2.73;;
11685;SDS011;5899;51.282;6.094;2023-02-28T15:49:33;3.10;;;2.80;;
11685;SDS011;5899;51.282;6.094;2023-02-28T15:50:50;4.55;;;3.03;;
11685;SDS011;5899;51.282;6.094;2023-02-28T15:53:23;4.65;;;4.25;;
11685;SDS011;5899;51.282;6.094;2023-02-28T15:56:12;4.68;;;3.80;;
11685;SDS011;5899;51.282;6.094;2023-02-28T15:59:03;4.80;;;4.30;;
11685;SDS011;5899;51.282;6.094;2023-02-28T16:04:36;3.95;;;3.58;;
11685;SDS011;5899;51.282;6.094;2023-02-28T16:07:03;4.60;;;4.20;;
11685;SDS011;5899;51.282;6.094;2023-02-28T16:12:16;3.67;;;3.35;;
11685;SDS011;5899;51.282;6.094;2023-02-28T16:12:47;5.65;;;3.45;;
11685;SDS011;5899;51.282;6.094;2023-02-28T16:15:18;13.73;;;7.88;;
11685;SDS011;5899;51.282;6.094;2023-02-28T16:17:44;28.30;;;9.57;;
11685;SDS011;5899;51.282;6.094;2023-02-28T16:28:48;29.42;;;14.35;;
11685;SDS011;5899;51.282;6.094;2023-02-28T16:31:15;17.02;;;10.20;;
11685;SDS011;5899;51.282;6.094;2023-02-28T16:33:44;16.90;;;10.93;;
11685;SDS011;5899;51.282;6.094;2023-02-28T16:36:13;8.25;;;6.38;;
11685;SDS011;5899;51.282;6.094;2023-02-28T16:38:43;6.57;;;5.80;;
11685;SDS011;5899;51.282;6.094;2023-02-28T16:41:11;3.50;;;3.20;;
11685;SDS011;5899;51.282;6.094;2023-02-28T16:43:43;3.35;;;3.05;;
11685;SDS011;5899;51.282;6.094;2023-02-28T16:46:14;4.65;;;3.58;;
11685;SDS011;5899;51.282;6.094;2023-02-28T16:48:44;3.40;;;3.10;;
11685;SDS011;5899;51.282;6.094;2023-02-28T16:51:14;4.32;;;3.42;;
11685;SDS011;5899;51.282;6.094;2023-02-28T16:53:47;3.60;;;3.30;;
11685;SDS011;5899;51.282;6.094;2023-02-28T16:56:17;3.33;;;3.03;;
11685;SDS011;5899;51.282;6.094;2023-02-28T16:58:44;4.32;;;3.20;;
11685;SDS011;5899;51.282;6.094;2023-02-28T17:01:11;3.57;;;3.27;;
11685;SDS011;5899;51.282;6.094;2023-02-28T17:03:39;3.50;;;3.03;;
11685;SDS011;5899;51.282;6.094;2023-02-28T17:09:03;2.88;;;2.58;;
11685;SDS011;5899;51.282;6.094;2023-02-28T17:11:42;3.70;;;3.28;;
11685;SDS011;5899;51.282;6.094;2023-02-28T17:14:12;34.72;;;17.80;;
11685;SDS011;5899;51.282;6.094;2023-02-28T17:16:39;54.33;;;22.08;;
11685;SDS011;5899;51.282;6.094;2023-02-28T17:19:16;53.50;;;19.35;;
11685;SDS011;5899;51.282;6.094;2023-02-28T17:21:56;61.03;;;22.17;;
11685;SDS011;5899;51.282;6.094;2023-02-28T17:24:43;46.42;;;16.60;;
11685;SDS011;5899;51.282;6.094;2023-02-28T17:27:13;77.07;;;30.60;;
11685;SDS011;5899;51.282;6.094;2023-02-28T17:29:52;30.58;;;14.18;;
11685;SDS011;5899;51.282;6.094;2023-02-28T17:32:45;37.47;;;14.00;;